createdAt,value
2022-10-20T00:03:34.500Z,27.22
2022-10-20T00:08:58.730Z,20.95
2022-10-20T00:14:22.422Z,16.57
2022-10-20T00:19:45.151Z,21.02
2022-10-20T00:25:07.292Z,15.80
2022-10-20T00:30:29.657Z,17.87
2022-10-20T00:35:52.694Z,13.65
2022-10-20T00:41:16.786Z,17.05
2022-10-20T00:46:47.788Z,15.18
2022-10-20T00:52:11.683Z,11.60
2022-10-20T00:57:35.178Z,17.67
2022-10-20T01:03:00.199Z,15.45
2022-10-20T01:08:22.423Z,14.33
2022-10-20T01:13:58.343Z,14.65
2022-10-20T01:19:54.783Z,14.15
2022-10-20T01:25:44.139Z,11.80
2022-10-20T01:31:13.651Z,16.80
2022-10-20T01:42:05.863Z,15.10
2022-10-20T01:47:29.612Z,12.75
2022-10-20T01:52:51.728Z,13.78
2022-10-20T01:58:45.940Z,11.50
2022-10-20T02:04:14.377Z,10.43
2022-10-20T02:09:47.057Z,16.02
2022-10-20T02:15:10.940Z,10.18
2022-10-20T02:20:34.823Z,10.98
2022-10-20T02:26:00.127Z,18.23
2022-10-20T02:31:23.884Z,12.13
2022-10-20T02:36:49.977Z,13.18
2022-10-20T02:42:12.761Z,11.10
2022-10-20T02:47:35.692Z,10.98
2022-10-20T02:52:58.253Z,14.60
2022-10-20T02:58:20.398Z,11.33
2022-10-20T03:03:42.541Z,10.28
2022-10-20T03:09:04.715Z,15.78
2022-10-20T03:14:26.955Z,14.87
2022-10-20T03:19:49.059Z,25.27
2022-10-20T03:25:11.417Z,21.93
2022-10-20T03:30:34.407Z,23.67
2022-10-20T03:35:56.519Z,18.35
2022-10-20T03:41:18.945Z,14.33
2022-10-20T03:46:41.053Z,14.25
2022-10-20T03:52:03.201Z,14.00
2022-10-20T03:57:26.511Z,16.80
2022-10-20T04:02:54.699Z,16.23
2022-10-20T04:08:16.892Z,14.07
2022-10-20T04:13:39.605Z,15.63
2022-10-20T04:19:02.690Z,14.98
2022-10-20T04:24:25.775Z,14.90
2022-10-20T04:29:48.015Z,12.37
2022-10-20T04:35:10.187Z,10.32
2022-10-20T04:40:32.969Z,10.80
2022-10-20T04:45:56.787Z,11.12
2022-10-20T04:51:22.374Z,13.78
2022-10-20T04:56:44.599Z,13.15
2022-10-20T05:02:06.854Z,12.20
2022-10-20T05:07:29.743Z,16.17
2022-10-20T05:12:51.867Z,10.78
2022-10-20T05:18:13.983Z,12.70
2022-10-20T05:23:36.553Z,17.27
2022-10-20T05:29:02.135Z,11.80
2022-10-20T05:34:25.475Z,16.62
2022-10-20T05:45:11.746Z,20.23
2022-10-20T05:50:33.925Z,18.12
2022-10-20T05:55:56.150Z,17.37
2022-10-20T06:01:49.403Z,22.00
2022-10-20T06:07:12.552Z,20.90
2022-10-20T06:12:34.855Z,20.75
2022-10-20T06:17:58.926Z,16.55
2022-10-20T06:23:21.070Z,17.98
2022-10-20T06:28:44.778Z,19.90
2022-10-20T06:34:07.525Z,18.98
2022-10-20T06:39:32.938Z,26.65
2022-10-20T06:44:56.932Z,14.63
2022-10-20T06:50:19.871Z,16.55
2022-10-20T06:55:42.015Z,15.70
2022-10-20T07:01:23.555Z,20.60
2022-10-20T07:06:52.682Z,19.52
2022-10-20T07:12:15.450Z,16.93
2022-10-20T07:17:37.601Z,19.12
2022-10-20T07:23:00.161Z,15.25
2022-10-20T07:28:22.728Z,18.23
2022-10-20T07:33:56.543Z,16.10
2022-10-20T07:39:14.717Z,21.02
2022-10-20T07:44:36.851Z,24.43
2022-10-20T07:49:59.995Z,17.50
2022-10-20T07:55:38.068Z,18.77
2022-10-20T08:00:46.506Z,19.40
2022-10-20T08:06:08.716Z,18.87
2022-10-20T08:11:31.890Z,15.88
2022-10-20T08:16:58.945Z,20.92
2022-10-20T08:22:21.109Z,25.40
2022-10-20T08:27:43.322Z,22.65
2022-10-20T08:33:07.631Z,31.37
2022-10-20T08:38:30.291Z,24.32
2022-10-20T08:43:55.795Z,28.95
2022-10-20T08:49:21.235Z,36.68
2022-10-20T08:54:45.273Z,27.75
2022-10-20T09:00:21.369Z,16.32
2022-10-20T09:05:47.495Z,10.72
2022-10-20T09:11:12.176Z,10.50
2022-10-20T09:16:58.851Z,13.32
2022-10-20T09:22:09.890Z,12.00
2022-10-20T09:27:43.313Z,8.35
2022-10-20T09:33:06.366Z,10.00
2022-10-20T09:38:39.400Z,14.87
2022-10-20T09:44:20.457Z,6.58
2022-10-20T09:49:46.099Z,8.05
2022-10-20T09:55:24.548Z,7.03
2022-10-20T10:00:53.331Z,4.00
2022-10-20T10:06:35.341Z,2.35
2022-10-20T10:11:59.190Z,3.75
2022-10-20T10:17:23.515Z,4.22
2022-10-20T10:22:48.970Z,5.15
2022-10-20T10:33:49.647Z,6.10
2022-10-20T10:39:14.966Z,6.22
2022-10-20T10:45:11.605Z,5.72
2022-10-20T10:50:58.625Z,3.92
2022-10-20T10:56:37.336Z,6.22
2022-10-20T11:02:28.134Z,3.33
2022-10-20T11:08:01.459Z,5.05
2022-10-20T11:13:52.158Z,3.08
2022-10-20T11:19:54.774Z,4.83
2022-10-20T11:25:38.031Z,2.60
2022-10-20T11:31:00.386Z,3.47
2022-10-20T11:36:25.872Z,2.72
2022-10-20T11:42:01.139Z,3.17
2022-10-20T11:47:28.328Z,5.13
2022-10-20T11:53:43.805Z,4.63
2022-10-20T11:59:32.041Z,9.20
2022-10-20T12:05:47.355Z,8.37
2022-10-20T12:11:25.145Z,11.90
2022-10-20T12:17:12.674Z,9.43
2022-10-20T12:22:45.355Z,8.43
2022-10-20T12:34:17.240Z,11.37
2022-10-20T12:39:41.960Z,10.17
2022-10-20T12:45:06.928Z,8.70
2022-10-20T12:50:50.387Z,5.33
2022-10-20T12:56:28.003Z,3.60
2022-10-20T13:02:19.256Z,3.10
2022-10-20T13:08:04.686Z,7.83
2022-10-20T13:19:00.462Z,3.00
2022-10-20T13:24:44.810Z,3.60
2022-10-20T13:30:05.928Z,3.00
2022-10-20T13:35:35.217Z,2.40
2022-10-20T13:41:23.822Z,4.17
2022-10-20T13:52:50.763Z,2.97
2022-10-20T13:58:20.772Z,4.40
2022-10-20T14:03:48.389Z,3.53
2022-10-20T14:09:18.994Z,3.43
2022-10-20T14:14:43.965Z,4.13
2022-10-20T14:20:18.143Z,3.63
2022-10-20T14:25:42.230Z,3.37
2022-10-20T14:31:16.790Z,4.67
2022-10-20T14:36:46.057Z,5.50
2022-10-20T14:42:10.416Z,6.97
2022-10-20T14:47:39.473Z,3.90
2022-10-20T14:53:01.933Z,12.43
2022-10-20T14:58:47.970Z,6.17
2022-10-20T15:04:33.466Z,4.90
2022-10-20T15:10:08.682Z,3.93
2022-10-20T15:15:43.620Z,13.60
2022-10-20T15:21:12.189Z,6.97
2022-10-20T15:26:34.624Z,6.83
2022-10-20T15:31:57.026Z,6.10
2022-10-20T15:37:19.358Z,3.20
2022-10-20T15:42:41.679Z,38.53
2022-10-20T15:48:03.932Z,6.67
2022-10-20T15:53:26.295Z,6.90
2022-10-20T15:58:50.235Z,6.95
2022-10-20T16:04:27.844Z,8.15
2022-10-20T16:09:50.341Z,10.80
2022-10-20T16:15:12.926Z,11.97
2022-10-20T16:20:35.374Z,6.03
2022-10-20T16:26:01.023Z,11.53
2022-10-20T16:31:30.536Z,10.48
2022-10-20T16:36:52.840Z,11.17
2022-10-20T16:42:15.220Z,10.60
2022-10-20T16:47:38.996Z,20.03
2022-10-20T16:53:02.363Z,11.35
2022-10-20T16:58:25.074Z,16.25
2022-10-20T17:03:49.138Z,16.60
2022-10-20T17:09:12.634Z,18.03
2022-10-20T17:14:35.507Z,19.85
2022-10-20T17:19:57.828Z,16.48
2022-10-20T17:25:21.209Z,18.40
2022-10-20T17:30:45.216Z,17.87
2022-10-20T17:36:08.787Z,15.15
2022-10-20T17:41:32.526Z,14.43
2022-10-20T17:46:55.546Z,25.17
2022-10-20T17:52:17.941Z,19.35
2022-10-20T17:57:42.173Z,16.42
2022-10-20T18:03:08.433Z,13.53
2022-10-20T18:08:31.314Z,15.80
2022-10-20T18:13:54.256Z,19.12
2022-10-20T18:19:20.080Z,19.77
2022-10-20T18:24:43.434Z,20.88
2022-10-20T18:30:05.734Z,20.10
2022-10-20T18:35:28.992Z,20.12
2022-10-20T18:40:53.077Z,22.52
2022-10-20T18:46:16.433Z,19.05
2022-10-20T18:51:39.440Z,18.48
2022-10-20T18:57:03.638Z,28.05
2022-10-20T19:02:29.005Z,21.85
2022-10-20T19:07:51.838Z,24.00
2022-10-20T19:13:16.094Z,23.13
2022-10-20T19:18:43.273Z,27.55
2022-10-20T19:24:16.081Z,22.22
2022-10-20T19:29:38.795Z,21.40
2022-10-20T19:35:02.232Z,23.97
2022-10-20T19:40:27.644Z,26.37
2022-10-20T19:45:49.906Z,28.20
2022-10-20T19:51:12.994Z,24.90
2022-10-20T19:56:35.846Z,52.55
2022-10-20T20:01:58.808Z,28.55
2022-10-20T20:07:21.564Z,33.20
2022-10-20T20:12:43.861Z,33.57
2022-10-20T20:18:06.556Z,40.05
2022-10-20T20:23:40.761Z,35.85
2022-10-20T20:28:54.484Z,32.63
2022-10-20T20:34:17.000Z,28.43
2022-10-20T20:39:39.923Z,28.62
2022-10-20T20:45:03.163Z,31.67
2022-10-20T20:50:26.047Z,28.40
2022-10-20T20:55:48.355Z,26.23
2022-10-20T21:01:22.610Z,26.62
2022-10-20T21:07:01.738Z,27.20
2022-10-20T21:17:33.154Z,29.67
2022-10-20T21:22:55.881Z,31.23
2022-10-20T21:28:18.202Z,31.13
2022-10-20T21:33:41.221Z,33.58
2022-10-20T21:39:04.719Z,34.03
2022-10-20T21:44:28.219Z,39.18
2022-10-20T21:49:50.497Z,35.47
2022-10-20T21:55:13.351Z,34.63
2022-10-20T22:00:36.113Z,39.37
2022-10-20T22:05:59.148Z,35.37
2022-10-20T22:11:26.264Z,37.73
2022-10-20T22:16:51.989Z,36.70
2022-10-20T22:22:14.454Z,33.20
2022-10-20T22:27:42.312Z,38.25
2022-10-20T22:33:00.860Z,34.57
2022-10-20T22:38:23.197Z,27.80
2022-10-20T22:43:46.646Z,28.60
2022-10-20T22:49:09.049Z,24.50
2022-10-20T22:54:31.459Z,27.73
2022-10-20T22:59:53.904Z,24.70
2022-10-20T23:05:16.285Z,22.25
2022-10-20T23:10:38.628Z,23.45
2022-10-20T23:16:03.255Z,26.57
2022-10-20T23:21:26.814Z,23.40
2022-10-20T23:26:49.064Z,24.53
2022-10-20T23:32:11.288Z,29.12
2022-10-20T23:37:33.432Z,24.60
2022-10-20T23:42:55.655Z,23.75
2022-10-20T23:48:17.806Z,20.92
2022-10-20T23:53:40.303Z,19.32
2022-10-20T23:59:02.468Z,21.20
